Aérodrome :
LOGIN :

S'inscrire | Disclaimer

   EN    FR    IT 

 










Légende :    VFR   VFR Marginal   IFR   IFR Intensif   IFR Très Intensif
Visi : 
Plafond : 
>= 8 km
>= 3000ft
5 à 8 km
1000 à 3000 ft
1500m à 5 km
500 à 1000 ft
800 à 1500m
200 à 500 ft
< 800m
< 200 ft
Symboles :   Orages  Brouillard  Fortes neiges  Fortes précipitations  Vent > 20 kt
SIGMETs :   Divers  Orages  Givrage  Turbulence  Onde Orograph.  Cendres Volcan.






- Altitude de l'aérodrome : 41 ft


LIRE - Pratica di Mare Air Base Pomezia

DERNIER METAR :
  • 100855Z 02011KT CAVOK 10/07 Q1009 RMK SKC VIS MIN 9999 WIND THR13 06012KT WIND THR31 02011KT BLU

METARs EXPIRÉS :
  • 100755Z 03014KT CAVOK 09/07 Q1008 RMK SKC VIS MIN 9999 WIND THR13 04016KT WIND THR31 03017KT BLU
  • 100655Z 02012KT CAVOK 09/07 Q1007 RMK SKC VIS MIN 9999 WIND THR13 03010KT WIND THR31 02011KT BLU

TAF TAF LIRE
Valide du 10 à 09h jusqu'au 10 à 18h UTC


100800Z 1009/1018 03015KT CAVOK
TEMPO 1009/1018 03015G27KT



MET'MAP, la Météo Aéronautique d'un coup d'oeil ! - Copyright ORBIFLY Décembre 2007 - Disclaimer

ORBIFLY MET'MAP TEAM :

Programmation & Développement : Alexandra Zaïnal
Sur une idée originale de : Baudouin d'Aumeries
Assistance à la programmation : Marc-Olivier Méhu
Soutien technique & logistique : Manuel Goepfert

Contact : metmap@orbifly.com




SOURCES & CREDITS :

   NOAA